createdAt,value
2019-04-16T00:02:41.743Z,93416.13
2019-04-16T00:05:19.730Z,93406.14
2019-04-16T00:07:59.046Z,93391.44
2019-04-16T00:10:35.975Z,93401.25
2019-04-16T00:13:13.522Z,93408.84
2019-04-16T00:15:45.894Z,93445.28
2019-04-16T00:18:18.721Z,93424.31
2019-04-16T00:21:09.895Z,93414.83
2019-04-16T00:24:11.179Z,93434.80
2019-04-16T00:26:42.747Z,93481.53
2019-04-16T00:29:13.103Z,93524.13
2019-04-16T00:31:45.465Z,93594.77
2019-04-16T00:34:17.165Z,93589.97
2019-04-16T00:36:48.675Z,93525.92
2019-04-16T00:39:25.621Z,93540.41
2019-04-16T00:41:56.146Z,93495.72
2019-04-16T00:44:26.446Z,93453.17
2019-04-16T00:46:57.249Z,93429.31
2019-04-16T00:49:37.756Z,93404.15
2019-04-16T00:52:08.377Z,93386.75
2019-04-16T00:54:42.494Z,93406.45
2019-04-16T00:57:11.318Z,93385.15
2019-04-16T00:59:41.697Z,93391.44
2019-04-16T01:02:12.112Z,93402.05
2019-04-16T01:04:43.529Z,93395.77
2019-04-16T01:07:13.876Z,93395.63
2019-04-16T01:09:44.559Z,93401.25
2019-04-16T01:12:17.457Z,93396.23
2019-04-16T01:14:47.801Z,93394.14
2019-04-16T01:17:18.166Z,93404.84
2019-04-16T01:19:51.084Z,93390.74
2019-04-16T01:22:21.622Z,93394.94
2019-04-16T01:24:52.670Z,93407.05
2019-04-16T01:27:32.548Z,93433.30
2019-04-16T01:30:05.990Z,93500.22
2019-04-16T01:32:54.909Z,93487.63
2019-04-16T01:35:51.502Z,93427.81
2019-04-16T01:38:35.536Z,93405.15
2019-04-16T01:41:08.432Z,93382.55
2019-04-16T01:43:38.773Z,93358.70
2019-04-16T01:46:09.574Z,93350.32
2019-04-16T01:48:39.917Z,93337.94
2019-04-16T01:51:14.972Z,93347.13
2019-04-16T01:53:43.832Z,93341.14
2019-04-16T01:56:14.144Z,93341.64
2019-04-16T01:58:45.300Z,93354.51
2019-04-16T02:01:16.214Z,93365.29
2019-04-16T02:03:48.877Z,93430.51
2019-04-16T02:06:25.836Z,93381.56
2019-04-16T02:09:01.731Z,93399.45
2019-04-16T02:11:29.795Z,93363.49
2019-04-16T02:14:00.747Z,93339.05
2019-04-16T02:16:31.089Z,93320.69
2019-04-16T02:19:02.449Z,93331.95
2019-04-16T02:21:33.015Z,93379.46
2019-04-16T02:24:03.381Z,93392.84
2019-04-16T02:26:33.721Z,93337.75
2019-04-16T02:29:04.353Z,93307.61
2019-04-16T02:31:35.028Z,93267.48
2019-04-16T02:34:05.392Z,93224.39
2019-04-16T02:36:35.750Z,93182.69
2019-04-16T02:39:08.611Z,93194.28
2019-04-16T02:41:39.155Z,93196.47
2019-04-16T02:44:14.161Z,93154.48
2019-04-16T02:46:41.856Z,93116.50
2019-04-16T02:49:12.478Z,93094.98
2019-04-16T02:52:06.244Z,93055.70
2019-04-16T02:54:44.586Z,93059.30
2019-04-16T02:57:28.093Z,93059.09
2019-04-16T03:00:05.709Z,93034.98
2019-04-16T03:02:53.874Z,93030.00
2019-04-16T03:05:29.038Z,93012.68
2019-04-16T03:08:05.020Z,93004.91
2019-04-16T03:10:34.774Z,93017.16
2019-04-16T03:13:05.209Z,93006.20
2019-04-16T03:16:06.263Z,92993.86
2019-04-16T03:18:52.097Z,92992.06
2019-04-16T03:21:27.430Z,92948.87
2019-04-16T03:23:57.903Z,93130.06
2019-04-16T03:26:28.231Z,93210.83
2019-04-16T03:28:59.521Z,93219.80
2019-04-16T03:31:29.909Z,93181.52
2019-04-16T03:34:00.298Z,93183.11
2019-04-16T03:36:32.566Z,93145.01
2019-04-16T03:39:12.286Z,93124.28
2019-04-16T03:41:41.513Z,93100.77
2019-04-16T03:44:18.651Z,93095.58
2019-04-16T03:46:49.045Z,93099.97
2019-04-16T03:49:19.385Z,93111.02
2019-04-16T03:51:49.791Z,93118.09
2019-04-16T03:54:22.474Z,93134.55
2019-04-16T03:56:52.265Z,93140.33
2019-04-16T03:59:27.705Z,93172.81
2019-04-16T04:01:58.483Z,93412.14
2019-04-16T04:04:29.922Z,93498.55
2019-04-16T04:07:00.530Z,93580.98
2019-04-16T04:09:33.869Z,93586.98
2019-04-16T04:12:04.302Z,93631.50
2019-04-16T04:14:34.731Z,93662.19
2019-04-16T04:17:07.061Z,93692.50
2019-04-16T04:19:37.740Z,93753.75
2019-04-16T04:22:09.718Z,93797.48
2019-04-16T04:24:40.092Z,93858.58
2019-04-16T04:27:14.394Z,93952.85
2019-04-16T04:29:42.478Z,93987.31
2019-04-16T04:32:13.012Z,94016.91
2019-04-16T04:34:45.507Z,94064.83
2019-04-16T04:37:15.710Z,94138.16
2019-04-16T04:39:46.020Z,94173.47
2019-04-16T04:42:19.375Z,94237.13
2019-04-16T04:44:49.123Z,94264.83
2019-04-16T04:47:20.227Z,94319.62
2019-04-16T04:49:50.744Z,94377.33
2019-04-16T04:52:21.319Z,94482.66
2019-04-16T04:54:54.105Z,94482.66
2019-04-16T04:57:24.075Z,94591.09
2019-04-16T04:59:54.746Z,94591.09
2019-04-16T05:02:25.094Z,94599.41
2019-04-16T05:05:02.164Z,94602.33
2019-04-16T05:07:32.690Z,94623.57
2019-04-16T05:10:04.654Z,94623.57
2019-04-16T05:12:34.988Z,94739.63
2019-04-16T05:15:06.518Z,94739.63
2019-04-16T05:17:38.474Z,94790.82
2019-04-16T05:20:08.910Z,94912.47
2019-04-16T05:22:39.293Z,94977.92
2019-04-16T05:25:09.941Z,95051.96
2019-04-16T05:27:41.599Z,95155.11
2019-04-16T05:30:12.428Z,95311.31
2019-04-16T05:32:44.032Z,95544.56
2019-04-16T05:35:14.727Z,95733.23
2019-04-16T05:37:45.316Z,96054.77
2019-04-16T05:40:17.780Z,96608.64
2019-04-16T05:42:48.181Z,96714.41
2019-04-16T05:45:18.784Z,96894.24
2019-04-16T05:47:50.644Z,96771.70
2019-04-16T05:50:20.984Z,97099.45
2019-04-16T05:52:51.289Z,97776.88
2019-04-16T05:55:50.543Z,98380.70
2019-04-16T05:58:21.953Z,98809.05
2019-04-16T06:01:13.787Z,99215.41
2019-04-16T06:03:45.950Z,99298.52
2019-04-16T06:06:17.614Z,99405.64
2019-04-16T06:08:48.019Z,99610.61
2019-04-16T06:11:28.348Z,99750.72
2019-04-16T06:14:05.442Z,99616.60
2019-04-16T06:16:56.759Z,99887.80
2019-04-16T06:19:46.738Z,100007.51
2019-04-16T06:22:36.294Z,99778.97
2019-04-16T06:25:24.560Z,99830.75
2019-04-16T06:28:22.877Z,99687.18
2019-04-16T06:31:18.216Z,99701.91
2019-04-16T06:34:10.549Z,99703.25
2019-04-16T06:37:12.020Z,99881.13
2019-04-16T06:40:00.893Z,99531.13
2019-04-16T06:42:41.316Z,99575.32
2019-04-16T06:45:29.765Z,99651.31
2019-04-16T06:48:12.809Z,99453.66
2019-04-16T06:50:48.614Z,99375.13
2019-04-16T06:53:25.225Z,99265.02
2019-04-16T06:56:20.882Z,99400.69
2019-04-16T06:59:05.381Z,99670.05
2019-04-16T07:02:07.606Z,99633.53
2019-04-16T07:05:01.213Z,99358.02
2019-04-16T07:07:48.019Z,99494.48
2019-04-16T07:10:20.428Z,99597.56
2019-04-16T07:12:51.238Z,100069.77
2019-04-16T07:15:23.765Z,100112.68
2019-04-16T07:17:56.814Z,100128.14
2019-04-16T07:20:27.951Z,100348.55
2019-04-16T07:22:58.315Z,100465.67
2019-04-16T07:25:29.738Z,100372.36
2019-04-16T07:28:08.228Z,100321.80
2019-04-16T07:30:49.459Z,100457.58
2019-04-16T07:33:26.595Z,100243.97
2019-04-16T07:36:11.271Z,100597.20
2019-04-16T07:38:59.456Z,100126.90
2019-04-16T07:42:07.850Z,100342.78
2019-04-16T07:45:11.459Z,100453.84
2019-04-16T07:48:51.432Z,100608.06
2019-04-16T07:51:42.765Z,100234.20
2019-04-16T07:54:29.299Z,100788.66
2019-04-16T07:57:00.000Z,100739.42
2019-04-16T07:59:32.370Z,100799.89
2019-04-16T08:02:03.495Z,100867.12
2019-04-16T08:04:36.658Z,100883.11
2019-04-16T08:07:08.399Z,100642.87
2019-04-16T08:09:38.747Z,100077.80
2019-04-16T08:12:22.063Z,99918.49
2019-04-16T08:14:41.047Z,100177.59
2019-04-16T08:17:11.356Z,100492.47
2019-04-16T08:19:44.685Z,100581.61
2019-04-16T08:22:15.842Z,100883.82
2019-04-16T08:24:50.200Z,100980.34
2019-04-16T08:27:22.156Z,101091.89
2019-04-16T08:29:53.144Z,101039.53
2019-04-16T08:32:25.748Z,100896.25
2019-04-16T08:34:58.362Z,101078.73
2019-04-16T08:37:30.646Z,101121.77
2019-04-16T08:40:00.951Z,101634.77
2019-04-16T08:42:44.149Z,101617.09
2019-04-16T08:45:09.332Z,101620.14
2019-04-16T08:47:44.538Z,101987.13
2019-04-16T08:50:14.868Z,102027.77
2019-04-16T08:52:45.549Z,102605.55
2019-04-16T08:55:15.877Z,102516.84
2019-04-16T08:57:47.095Z,102667.34
2019-04-16T09:00:18.378Z,102807.46
2019-04-16T09:02:48.672Z,102168.02
2019-04-16T09:05:19.372Z,101975.39
2019-04-16T09:07:51.054Z,102083.39
2019-04-16T09:10:24.041Z,102428.38
2019-04-16T09:13:04.316Z,102786.94
2019-04-16T09:15:32.743Z,102532.22
2019-04-16T09:18:15.861Z,102528.75
2019-04-16T09:20:46.691Z,102854.55
2019-04-16T09:23:17.264Z,102795.78
2019-04-16T09:26:22.599Z,102800.20
2019-04-16T09:29:09.952Z,102837.70
2019-04-16T09:32:00.118Z,102707.77
2019-04-16T09:34:49.572Z,102081.31
2019-04-16T09:37:49.151Z,102182.14
2019-04-16T09:40:49.374Z,102173.64
2019-04-16T09:43:24.932Z,102518.94
2019-04-16T09:46:09.674Z,102934.02
2019-04-16T09:48:34.246Z,102430.34
2019-04-16T09:51:03.436Z,102855.77
2019-04-16T09:53:37.481Z,102689.45
2019-04-16T09:56:34.930Z,102965.05
2019-04-16T09:59:27.750Z,103023.41
2019-04-16T10:02:08.244Z,102811.52
2019-04-16T10:04:40.140Z,102676.68
2019-04-16T10:07:12.701Z,102593.14
2019-04-16T10:09:51.422Z,102592.73
2019-04-16T10:12:25.072Z,102599.28
2019-04-16T10:14:56.715Z,102952.13
2019-04-16T10:17:27.476Z,102336.24
2019-04-16T10:19:57.867Z,102863.88
2019-04-16T10:22:28.545Z,103066.73
2019-04-16T10:25:06.378Z,103264.38
2019-04-16T10:27:41.345Z,103359.07
2019-04-16T10:30:34.123Z,103852.28
2019-04-16T10:33:04.594Z,103437.86
2019-04-16T10:35:34.930Z,102878.14
2019-04-16T10:38:22.801Z,103255.84
2019-04-16T10:40:59.537Z,103400.38
2019-04-16T10:43:47.870Z,102989.53
2019-04-16T10:46:34.077Z,102807.70
2019-04-16T10:49:10.052Z,103264.13
2019-04-16T10:51:48.894Z,103465.50
2019-04-16T10:54:38.265Z,103929.85
2019-04-16T10:57:42.984Z,104334.93
2019-04-16T11:00:45.043Z,104440.09
2019-04-16T11:03:21.235Z,104123.92
2019-04-16T11:06:01.077Z,104150.39
2019-04-16T11:08:32.859Z,103895.22
2019-04-16T11:11:13.593Z,103582.21
2019-04-16T11:13:58.912Z,103284.47
2019-04-16T11:16:20.012Z,103270.54
2019-04-16T11:18:50.452Z,103549.94
2019-04-16T11:21:22.124Z,103820.05
2019-04-16T11:23:53.211Z,103188.42
2019-04-16T11:26:24.583Z,103223.31
2019-04-16T11:28:56.348Z,103276.58
2019-04-16T11:31:27.051Z,103219.75
2019-04-16T11:33:57.505Z,102482.82
2019-04-16T11:36:30.996Z,102711.55
2019-04-16T11:39:02.633Z,102702.58
2019-04-16T11:44:54.953Z,103077.72
2019-04-16T11:47:27.925Z,103441.73
2019-04-16T11:49:57.184Z,103632.98
2019-04-16T11:52:29.408Z,103513.42
2019-04-16T11:55:00.863Z,103010.48
2019-04-16T11:57:35.045Z,102984.63
2019-04-16T12:00:09.237Z,103070.45
2019-04-16T12:03:01.915Z,103295.48
2019-04-16T12:05:51.832Z,103389.42
2019-04-16T12:08:35.237Z,103500.84
2019-04-16T12:11:19.774Z,103453.84
2019-04-16T12:13:56.767Z,103133.12
2019-04-16T12:16:35.694Z,102898.48
2019-04-16T12:19:24.212Z,103218.55
2019-04-16T12:22:18.261Z,103065.03
2019-04-16T12:25:06.483Z,102847.81
2019-04-16T12:27:54.691Z,103047.92
2019-04-16T12:30:35.068Z,103192.19
2019-04-16T12:33:15.688Z,102947.34
2019-04-16T12:35:53.510Z,102639.04
2019-04-16T12:38:29.066Z,102409.77
2019-04-16T12:41:33.419Z,102053.40
2019-04-16T12:44:44.531Z,102394.67
2019-04-16T12:47:14.770Z,102961.13
2019-04-16T12:50:16.492Z,102938.98
2019-04-16T12:52:55.952Z,102710.55
2019-04-16T12:55:47.924Z,102652.81
2019-04-16T12:58:55.317Z,102654.53
2019-04-16T13:01:36.516Z,102598.38
2019-04-16T13:04:12.005Z,102517.92
2019-04-16T13:07:13.778Z,102583.76
2019-04-16T13:10:06.119Z,102696.42
2019-04-16T13:13:05.133Z,102371.48
2019-04-16T13:16:01.195Z,102525.30
2019-04-16T13:19:03.962Z,103170.38
2019-04-16T13:21:42.759Z,102615.80
2019-04-16T13:24:23.217Z,102868.70
2019-04-16T13:27:21.818Z,103008.39
2019-04-16T13:29:52.280Z,103136.51
2019-04-16T13:32:23.165Z,102567.17
2019-04-16T13:34:57.912Z,102494.34
2019-04-16T13:37:33.749Z,102541.53
2019-04-16T13:40:05.016Z,102189.14
2019-04-16T13:42:37.110Z,102315.53
2019-04-16T13:45:28.890Z,102245.88
2019-04-16T13:48:14.478Z,102275.19
2019-04-16T13:51:01.783Z,101985.02
2019-04-16T13:53:38.772Z,101924.67
2019-04-16T13:56:30.918Z,102389.74
2019-04-16T13:59:23.542Z,102470.37
2019-04-16T14:02:06.708Z,102234.71
2019-04-16T14:04:42.577Z,102033.26
2019-04-16T14:07:12.518Z,101970.31
2019-04-16T14:09:44.366Z,101754.86
2019-04-16T14:12:17.107Z,102153.19
2019-04-16T14:14:49.491Z,102031.28
2019-04-16T14:17:25.307Z,102001.12
2019-04-16T14:19:55.933Z,101893.41
2019-04-16T14:22:26.289Z,102325.30
2019-04-16T14:24:56.729Z,102024.19
2019-04-16T14:27:27.078Z,102178.54
2019-04-16T14:29:59.634Z,101657.86
2019-04-16T14:32:30.255Z,101600.69
2019-04-16T14:35:03.324Z,101177.97
2019-04-16T14:37:33.945Z,101147.26
2019-04-16T14:40:22.452Z,101226.13
2019-04-16T14:42:57.352Z,101415.80
2019-04-16T14:45:53.511Z,101222.80
2019-04-16T14:48:10.202Z,100889.30
2019-04-16T14:50:40.596Z,101077.41
2019-04-16T14:53:15.542Z,101363.80
2019-04-16T14:55:59.721Z,101379.52
2019-04-16T14:58:57.863Z,101193.76
2019-04-16T15:01:56.046Z,101284.83
2019-04-16T15:04:36.884Z,101203.06
2019-04-16T15:07:29.189Z,101437.37
2019-04-16T15:10:33.553Z,101358.05
2019-04-16T15:13:17.534Z,101131.84
2019-04-16T15:16:14.114Z,100775.06
2019-04-16T15:18:59.699Z,100809.59
2019-04-16T15:21:51.932Z,100816.72
2019-04-16T15:24:47.116Z,100766.30
2019-04-16T15:27:44.694Z,100475.67
2019-04-16T15:30:36.697Z,100570.48
2019-04-16T15:33:41.134Z,100517.31
2019-04-16T15:36:18.456Z,100011.52
2019-04-16T15:39:17.517Z,100074.37
2019-04-16T15:42:07.078Z,100192.38
2019-04-16T15:45:03.529Z,100040.41
2019-04-16T15:47:49.851Z,100113.47
2019-04-16T15:50:25.942Z,100046.48
2019-04-16T15:53:15.356Z,99803.63
2019-04-16T15:55:58.083Z,99718.02
2019-04-16T15:58:48.715Z,99779.52
2019-04-16T16:01:25.963Z,99650.56
2019-04-16T16:04:13.924Z,99739.02
2019-04-16T16:07:09.610Z,99595.97
2019-04-16T16:09:59.048Z,99543.06
2019-04-16T16:12:32.590Z,99433.69
2019-04-16T16:15:07.597Z,99334.89
2019-04-16T16:17:38.228Z,99251.52
2019-04-16T16:20:12.416Z,99148.30
2019-04-16T16:22:42.749Z,98954.43
2019-04-16T16:25:13.339Z,98846.91
2019-04-16T16:27:46.960Z,98814.05
2019-04-16T16:30:15.786Z,98715.95
2019-04-16T16:32:46.132Z,98667.50
2019-04-16T16:35:17.805Z,98557.19
2019-04-16T16:37:48.703Z,98458.89
2019-04-16T16:40:19.056Z,98386.53
2019-04-16T16:42:49.353Z,98390.02
2019-04-16T16:45:23.445Z,98367.43
2019-04-16T16:47:54.342Z,98289.20
2019-04-16T16:50:24.723Z,98273.72
2019-04-16T16:53:15.114Z,98279.36
2019-04-16T16:55:51.176Z,98283.55
2019-04-16T16:58:39.367Z,98227.57
2019-04-16T17:01:27.441Z,98191.89
2019-04-16T17:04:12.022Z,98178.11
2019-04-16T17:06:42.378Z,98148.87
2019-04-16T17:09:22.137Z,98100.61
2019-04-16T17:11:55.744Z,98055.30
2019-04-16T17:14:25.565Z,97993.62
2019-04-16T17:17:12.440Z,97951.86
2019-04-16T17:19:30.249Z,97913.37
2019-04-16T17:22:01.256Z,97883.56
2019-04-16T17:24:31.596Z,97861.36
2019-04-16T17:27:02.057Z,97828.87
2019-04-16T17:29:32.398Z,97827.38
2019-04-16T17:32:04.328Z,97749.57
2019-04-16T17:34:38.841Z,97727.86
2019-04-16T17:37:06.685Z,97643.61
2019-04-16T17:39:46.483Z,97595.94
2019-04-16T17:42:21.180Z,97536.58
2019-04-16T17:45:25.762Z,97526.33
2019-04-16T17:48:06.129Z,97480.35
2019-04-16T17:50:58.613Z,97415.58
2019-04-16T17:54:02.577Z,97402.34
2019-04-16T17:57:09.070Z,97338.92
2019-04-16T18:00:05.879Z,97293.98
2019-04-16T18:03:04.722Z,97214.11
2019-04-16T18:05:49.672Z,97176.14
2019-04-16T18:08:37.935Z,97111.16
2019-04-16T18:11:11.153Z,97018.48
2019-04-16T18:14:11.547Z,96941.68
2019-04-16T18:16:54.231Z,96864.23
2019-04-16T18:19:52.172Z,96796.72
2019-04-16T18:22:31.172Z,96792.94
2019-04-16T18:25:08.794Z,96759.34
2019-04-16T18:27:58.092Z,96706.36
2019-04-16T18:30:40.581Z,96713.42
2019-04-16T18:33:30.204Z,96665.23
2019-04-16T18:36:16.968Z,96639.55
2019-04-16T18:39:24.502Z,96579.22
2019-04-16T18:41:59.738Z,96501.80
2019-04-16T18:44:47.754Z,96508.53
2019-04-16T18:48:03.131Z,96474.03
2019-04-16T18:50:28.440Z,96450.72
2019-04-16T18:52:59.689Z,96409.30
2019-04-16T18:55:30.008Z,96369.73
2019-04-16T18:58:00.785Z,96344.30
2019-04-16T19:00:48.705Z,96294.55
2019-04-16T19:03:20.969Z,96239.27
2019-04-16T19:05:51.288Z,96181.51
2019-04-16T19:08:22.293Z,96061.48
2019-04-16T19:10:52.879Z,96026.44
2019-04-16T19:13:23.133Z,96003.66
2019-04-16T19:15:54.203Z,96004.47
2019-04-16T19:18:24.634Z,95976.97
2019-04-16T19:20:55.213Z,95933.88
2019-04-16T19:23:26.225Z,95873.80
2019-04-16T19:25:56.859Z,95839.12
2019-04-16T19:28:28.362Z,95792.28
2019-04-16T19:30:59.231Z,95806.70
2019-04-16T19:33:33.395Z,95800.79
2019-04-16T19:36:04.003Z,95779.84
2019-04-16T19:38:39.358Z,95694.16
2019-04-16T19:41:07.940Z,95654.90
2019-04-16T19:43:38.555Z,95640.84
2019-04-16T19:46:15.231Z,95623.02
2019-04-16T19:48:41.828Z,95596.08
2019-04-16T19:51:14.453Z,95513.26
2019-04-16T19:53:47.655Z,95460.14
2019-04-16T19:56:18.650Z,95451.02
2019-04-16T19:58:49.616Z,95427.98
2019-04-16T20:01:21.382Z,95410.20
2019-04-16T20:03:51.869Z,95336.77
2019-04-16T20:06:25.245Z,95339.70
2019-04-16T20:08:55.952Z,95344.44
2019-04-16T20:11:26.249Z,95306.44
2019-04-16T20:14:01.477Z,95230.76
2019-04-16T20:16:29.573Z,95215.92
2019-04-16T20:19:00.349Z,95165.20
2019-04-16T20:21:44.360Z,95135.10
2019-04-16T20:24:22.324Z,95127.75
2019-04-16T20:26:53.030Z,95057.50
2019-04-16T20:29:23.647Z,94998.28
2019-04-16T20:31:54.293Z,94974.69
2019-04-16T20:34:25.848Z,95034.39
2019-04-16T20:36:57.225Z,95024.80
2019-04-16T20:39:32.348Z,95054.08
2019-04-16T20:42:12.230Z,95057.34
2019-04-16T20:44:42.917Z,95052.77
2019-04-16T20:47:13.822Z,94997.59
2019-04-16T20:49:46.042Z,94945.02
2019-04-16T20:52:16.955Z,94870.66
2019-04-16T20:54:51.181Z,94886.77
2019-04-16T20:57:25.343Z,94846.23
2019-04-16T20:59:54.005Z,94822.66
2019-04-16T21:02:24.967Z,94835.97
2019-04-16T21:04:58.188Z,94856.34
2019-04-16T21:07:28.017Z,94835.35
2019-04-16T21:10:17.164Z,94855.53
2019-04-16T21:12:47.544Z,94850.31
2019-04-16T21:15:19.501Z,94785.28
2019-04-16T21:17:50.956Z,94816.81
2019-04-16T21:20:23.494Z,94807.05
2019-04-16T21:22:57.605Z,94780.25
2019-04-16T21:25:27.062Z,94730.98
2019-04-16T21:28:13.087Z,94746.92
2019-04-16T21:30:44.348Z,94731.29
2019-04-16T21:33:39.986Z,94725.76
2019-04-16T21:36:12.661Z,94675.42
2019-04-16T21:39:18.136Z,94580.22
2019-04-16T21:41:50.491Z,94528.59
2019-04-16T21:44:21.136Z,94495.81
2019-04-16T21:46:52.348Z,94528.59
2019-04-16T21:49:37.804Z,94509.09
2019-04-16T21:52:08.454Z,94464.96
2019-04-16T21:54:39.772Z,94518.84
2019-04-16T21:57:13.505Z,94518.84
2019-04-16T21:59:43.472Z,94449.88
2019-04-16T22:02:37.868Z,94449.88
2019-04-16T22:05:09.665Z,94404.25
2019-04-16T22:07:40.376Z,94418.52
2019-04-16T22:10:10.791Z,94359.84
2019-04-16T22:12:41.368Z,94308.09
2019-04-16T22:15:11.735Z,94280.38
2019-04-16T22:17:42.134Z,94243.14
2019-04-16T22:20:12.446Z,94213.30
2019-04-16T22:22:43.685Z,94175.38
2019-04-16T22:25:16.459Z,94129.43
2019-04-16T22:27:47.050Z,94129.43
2019-04-16T22:30:19.520Z,94101.61
2019-04-16T22:32:50.167Z,94101.61
2019-04-16T22:35:20.774Z,94089.59
2019-04-16T22:37:52.615Z,94059.50
2019-04-16T22:40:45.242Z,94059.50
2019-04-16T22:43:49.753Z,94058.51
2019-04-16T22:46:25.511Z,94088.78
2019-04-16T22:48:57.444Z,94118.70
2019-04-16T22:51:29.432Z,94118.41
2019-04-16T22:53:59.712Z,94107.38
2019-04-16T22:56:52.327Z,94114.69
2019-04-16T22:59:23.898Z,94078.06
2019-04-16T23:01:54.537Z,94049.78
2019-04-16T23:04:25.854Z,94051.09
2019-04-16T23:06:56.925Z,94048.29
2019-04-16T23:09:31.599Z,94060.31
2019-04-16T23:12:02.867Z,94050.09
2019-04-16T23:14:34.893Z,94073.36
2019-04-16T23:17:06.030Z,94078.56
2019-04-16T23:19:36.717Z,94065.23
2019-04-16T23:22:07.057Z,94067.04
2019-04-16T23:24:37.485Z,94080.36
2019-04-16T23:27:09.658Z,94099.62
2019-04-16T23:29:40.054Z,94098.62
2019-04-16T23:32:14.299Z,94074.35
2019-04-16T23:34:46.865Z,94005.75
2019-04-16T23:37:23.002Z,93954.34
2019-04-16T23:39:51.560Z,93908.23
2019-04-16T23:42:22.450Z,93867.29
2019-04-16T23:45:14.828Z,93848.06
2019-04-16T23:47:59.492Z,93859.88
2019-04-16T23:50:49.479Z,93833.05
2019-04-16T23:53:24.964Z,93863.08
2019-04-16T23:56:17.876Z,93863.88
2019-04-16T23:59:01.370Z,93884.72
